sensor_id;sensor_type;location;lat;lon;timestamp;P1;durP1;ratioP1;P2;durP2;ratioP2
7001;SDS011;3541;53.230;10.518;2022-07-19T00:00:21;4.25;;;3.63;;
7001;SDS011;3541;53.230;10.518;2022-07-19T00:02:49;5.47;;;3.88;;
7001;SDS011;3541;53.230;10.518;2022-07-19T00:05:17;3.92;;;3.53;;
7001;SDS011;3541;53.230;10.518;2022-07-19T00:07:46;4.88;;;3.90;;
7001;SDS011;3541;53.230;10.518;2022-07-19T00:10:13;5.72;;;3.63;;
7001;SDS011;3541;53.230;10.518;2022-07-19T00:12:41;4.32;;;3.70;;
7001;SDS011;3541;53.230;10.518;2022-07-19T00:15:09;5.03;;;3.42;;
7001;SDS011;3541;53.230;10.518;2022-07-19T00:17:38;4.15;;;3.72;;
7001;SDS011;3541;53.230;10.518;2022-07-19T00:20:07;3.67;;;3.28;;
7001;SDS011;3541;53.230;10.518;2022-07-19T00:22:34;6.15;;;3.88;;
7001;SDS011;3541;53.230;10.518;2022-07-19T00:25:02;4.10;;;3.60;;
7001;SDS011;3541;53.230;10.518;2022-07-19T00:27:29;4.82;;;3.88;;
7001;SDS011;3541;53.230;10.518;2022-07-19T00:29:56;6.05;;;3.40;;
7001;SDS011;3541;53.230;10.518;2022-07-19T00:32:23;9.63;;;4.82;;
7001;SDS011;3541;53.230;10.518;2022-07-19T00:34:49;5.97;;;4.43;;
7001;SDS011;3541;53.230;10.518;2022-07-19T00:37:17;4.72;;;3.67;;
7001;SDS011;3541;53.230;10.518;2022-07-19T00:39:43;5.90;;;4.78;;
7001;SDS011;3541;53.230;10.518;2022-07-19T00:42:11;6.95;;;3.70;;
7001;SDS011;3541;53.230;10.518;2022-07-19T00:44:39;4.50;;;3.85;;
7001;SDS011;3541;53.230;10.518;2022-07-19T00:47:06;3.92;;;3.53;;
7001;SDS011;3541;53.230;10.518;2022-07-19T00:49:33;4.75;;;3.40;;
7001;SDS011;3541;53.230;10.518;2022-07-19T00:51:59;5.47;;;3.67;;
7001;SDS011;3541;53.230;10.518;2022-07-19T00:54:28;4.70;;;3.72;;
7001;SDS011;3541;53.230;10.518;2022-07-19T00:56:59;5.50;;;3.95;;
7001;SDS011;3541;53.230;10.518;2022-07-19T00:59:29;5.20;;;3.75;;
7001;SDS011;3541;53.230;10.518;2022-07-19T01:01:56;4.40;;;3.70;;
7001;SDS011;3541;53.230;10.518;2022-07-19T01:04:24;4.55;;;3.40;;
7001;SDS011;3541;53.230;10.518;2022-07-19T01:06:50;5.20;;;3.90;;
7001;SDS011;3541;53.230;10.518;2022-07-19T01:09:17;6.40;;;4.45;;
7001;SDS011;3541;53.230;10.518;2022-07-19T01:11:43;4.65;;;3.75;;
7001;SDS011;3541;53.230;10.518;2022-07-19T01:14:10;5.55;;;3.90;;
7001;SDS011;3541;53.230;10.518;2022-07-19T01:16:41;3.97;;;3.50;;
7001;SDS011;3541;53.230;10.518;2022-07-19T01:19:09;4.68;;;3.85;;
7001;SDS011;3541;53.230;10.518;2022-07-19T01:21:37;4.55;;;3.80;;
7001;SDS011;3541;53.230;10.518;2022-07-19T01:24:04;4.65;;;3.97;;
7001;SDS011;3541;53.230;10.518;2022-07-19T01:26:31;5.03;;;3.75;;
7001;SDS011;3541;53.230;10.518;2022-07-19T01:28:57;4.40;;;4.00;;
7001;SDS011;3541;53.230;10.518;2022-07-19T01:31:24;3.78;;;3.35;;
7001;SDS011;3541;53.230;10.518;2022-07-19T01:33:51;5.07;;;3.90;;
7001;SDS011;3541;53.230;10.518;2022-07-19T01:36:17;4.90;;;3.83;;
7001;SDS011;3541;53.230;10.518;2022-07-19T01:38:45;3.80;;;3.40;;
7001;SDS011;3541;53.230;10.518;2022-07-19T01:41:12;4.65;;;3.65;;
7001;SDS011;3541;53.230;10.518;2022-07-19T01:43:39;4.82;;;4.07;;
7001;SDS011;3541;53.230;10.518;2022-07-19T01:46:06;3.95;;;3.58;;
7001;SDS011;3541;53.230;10.518;2022-07-19T01:48:32;4.60;;;3.90;;
7001;SDS011;3541;53.230;10.518;2022-07-19T01:50:59;4.97;;;4.07;;
7001;SDS011;3541;53.230;10.518;2022-07-19T01:53:26;7.97;;;4.00;;
7001;SDS011;3541;53.230;10.518;2022-07-19T01:55:54;4.63;;;3.80;;
7001;SDS011;3541;53.230;10.518;2022-07-19T01:58:20;5.95;;;3.80;;
7001;SDS011;3541;53.230;10.518;2022-07-19T02:00:47;4.82;;;4.07;;
7001;SDS011;3541;53.230;10.518;2022-07-19T02:03:13;4.85;;;3.70;;
7001;SDS011;3541;53.230;10.518;2022-07-19T02:05:41;4.65;;;4.07;;
7001;SDS011;3541;53.230;10.518;2022-07-19T02:08:08;4.10;;;3.58;;
7001;SDS011;3541;53.230;10.518;2022-07-19T02:10:34;4.82;;;4.15;;
7001;SDS011;3541;53.230;10.518;2022-07-19T02:13:02;4.90;;;3.95;;
7001;SDS011;3541;53.230;10.518;2022-07-19T02:15:29;4.32;;;3.53;;
7001;SDS011;3541;53.230;10.518;2022-07-19T02:17:56;4.65;;;3.90;;
7001;SDS011;3541;53.230;10.518;2022-07-19T02:20:22;4.55;;;3.67;;
7001;SDS011;3541;53.230;10.518;2022-07-19T02:22:49;4.40;;;3.35;;
7001;SDS011;3541;53.230;10.518;2022-07-19T02:25:16;4.53;;;3.53;;
7001;SDS011;3541;53.230;10.518;2022-07-19T02:27:43;4.50;;;3.65;;
7001;SDS011;3541;53.230;10.518;2022-07-19T02:30:11;4.40;;;3.85;;
7001;SDS011;3541;53.230;10.518;2022-07-19T02:32:39;3.80;;;3.40;;
7001;SDS011;3541;53.230;10.518;2022-07-19T02:35:07;3.88;;;3.50;;
7001;SDS011;3541;53.230;10.518;2022-07-19T02:37:35;4.53;;;3.70;;
7001;SDS011;3541;53.230;10.518;2022-07-19T02:40:02;5.90;;;3.50;;
7001;SDS011;3541;53.230;10.518;2022-07-19T02:42:30;4.45;;;3.50;;
7001;SDS011;3541;53.230;10.518;2022-07-19T02:44:56;4.10;;;3.38;;
7001;SDS011;3541;53.230;10.518;2022-07-19T02:47:24;5.78;;;3.30;;
7001;SDS011;3541;53.230;10.518;2022-07-19T02:49:51;4.28;;;3.50;;
7001;SDS011;3541;53.230;10.518;2022-07-19T02:52:18;4.80;;;3.25;;
7001;SDS011;3541;53.230;10.518;2022-07-19T02:54:44;5.57;;;3.60;;
7001;SDS011;3541;53.230;10.518;2022-07-19T02:57:11;5.57;;;3.53;;
7001;SDS011;3541;53.230;10.518;2022-07-19T02:59:38;3.83;;;3.40;;
7001;SDS011;3541;53.230;10.518;2022-07-19T03:02:04;6.00;;;3.70;;
7001;SDS011;3541;53.230;10.518;2022-07-19T03:04:32;4.95;;;3.20;;
7001;SDS011;3541;53.230;10.518;2022-07-19T03:06:59;5.03;;;3.63;;
7001;SDS011;3541;53.230;10.518;2022-07-19T03:09:26;4.38;;;3.85;;
7001;SDS011;3541;53.230;10.518;2022-07-19T03:11:52;5.57;;;3.63;;
7001;SDS011;3541;53.230;10.518;2022-07-19T03:14:19;5.03;;;3.30;;
7001;SDS011;3541;53.230;10.518;2022-07-19T03:16:45;4.70;;;3.95;;
7001;SDS011;3541;53.230;10.518;2022-07-19T03:19:12;5.05;;;3.90;;
7001;SDS011;3541;53.230;10.518;2022-07-19T03:21:40;4.80;;;3.70;;
7001;SDS011;3541;53.230;10.518;2022-07-19T03:24:06;5.68;;;4.00;;
7001;SDS011;3541;53.230;10.518;2022-07-19T03:26:33;4.32;;;3.75;;
7001;SDS011;3541;53.230;10.518;2022-07-19T03:29:00;4.70;;;4.18;;
7001;SDS011;3541;53.230;10.518;2022-07-19T03:31:26;5.22;;;3.97;;
7001;SDS011;3541;53.230;10.518;2022-07-19T03:33:53;4.80;;;4.15;;
7001;SDS011;3541;53.230;10.518;2022-07-19T03:36:19;7.38;;;4.13;;
7001;SDS011;3541;53.230;10.518;2022-07-19T03:38:47;5.50;;;4.25;;
7001;SDS011;3541;53.230;10.518;2022-07-19T03:41:14;5.78;;;4.45;;
7001;SDS011;3541;53.230;10.518;2022-07-19T03:43:40;7.10;;;3.83;;
7001;SDS011;3541;53.230;10.518;2022-07-19T03:46:07;6.22;;;4.65;;
7001;SDS011;3541;53.230;10.518;2022-07-19T03:48:33;5.20;;;4.15;;
7001;SDS011;3541;53.230;10.518;2022-07-19T03:51:00;4.63;;;3.88;;
7001;SDS011;3541;53.230;10.518;2022-07-19T03:53:27;4.15;;;3.72;;
7001;SDS011;3541;53.230;10.518;2022-07-19T03:55:55;5.03;;;4.45;;
7001;SDS011;3541;53.230;10.518;2022-07-19T03:58:21;5.25;;;3.75;;
7001;SDS011;3541;53.230;10.518;2022-07-19T04:00:48;5.50;;;4.25;;
7001;SDS011;3541;53.230;10.518;2022-07-19T04:03:14;4.50;;;3.83;;
7001;SDS011;3541;53.230;10.518;2022-07-19T04:05:41;5.38;;;4.05;;
7001;SDS011;3541;53.230;10.518;2022-07-19T04:08:08;5.68;;;3.70;;
7001;SDS011;3541;53.230;10.518;2022-07-19T04:10:35;5.95;;;3.78;;
7001;SDS011;3541;53.230;10.518;2022-07-19T04:13:03;5.85;;;4.22;;
7001;SDS011;3541;53.230;10.518;2022-07-19T04:15:29;3.95;;;3.55;;
7001;SDS011;3541;53.230;10.518;2022-07-19T04:17:56;5.82;;;4.10;;
7001;SDS011;3541;53.230;10.518;2022-07-19T04:20:23;5.47;;;4.03;;
7001;SDS011;3541;53.230;10.518;2022-07-19T04:22:49;6.85;;;4.65;;
7001;SDS011;3541;53.230;10.518;2022-07-19T04:25:16;5.78;;;4.00;;
7001;SDS011;3541;53.230;10.518;2022-07-19T04:27:42;6.10;;;4.18;;
7001;SDS011;3541;53.230;10.518;2022-07-19T04:30:10;6.13;;;4.55;;
7001;SDS011;3541;53.230;10.518;2022-07-19T04:32:37;5.40;;;4.15;;
7001;SDS011;3541;53.230;10.518;2022-07-19T04:35:04;4.85;;;4.35;;
7001;SDS011;3541;53.230;10.518;2022-07-19T04:37:32;4.82;;;4.13;;
7001;SDS011;3541;53.230;10.518;2022-07-19T04:39:59;5.15;;;4.20;;
7001;SDS011;3541;53.230;10.518;2022-07-19T04:42:25;5.68;;;4.68;;
7001;SDS011;3541;53.230;10.518;2022-07-19T04:44:52;6.30;;;4.78;;
7001;SDS011;3541;53.230;10.518;2022-07-19T04:47:20;5.15;;;4.60;;
7001;SDS011;3541;53.230;10.518;2022-07-19T04:49:47;6.85;;;4.90;;
7001;SDS011;3541;53.230;10.518;2022-07-19T04:52:13;6.85;;;4.70;;
7001;SDS011;3541;53.230;10.518;2022-07-19T04:54:40;7.03;;;4.68;;
7001;SDS011;3541;53.230;10.518;2022-07-19T04:57:06;6.43;;;4.80;;
7001;SDS011;3541;53.230;10.518;2022-07-19T04:59:33;5.57;;;4.72;;
7001;SDS011;3541;53.230;10.518;2022-07-19T05:01:59;6.70;;;4.68;;
7001;SDS011;3541;53.230;10.518;2022-07-19T05:04:27;6.55;;;4.35;;
7001;SDS011;3541;53.230;10.518;2022-07-19T05:06:54;5.15;;;4.55;;
7001;SDS011;3541;53.230;10.518;2022-07-19T05:09:22;6.18;;;4.53;;
7001;SDS011;3541;53.230;10.518;2022-07-19T05:11:49;5.90;;;4.50;;
7001;SDS011;3541;53.230;10.518;2022-07-19T05:14:16;9.07;;;4.60;;
7001;SDS011;3541;53.230;10.518;2022-07-19T05:16:43;8.07;;;4.70;;
7001;SDS011;3541;53.230;10.518;2022-07-19T05:19:10;6.70;;;4.70;;
7001;SDS011;3541;53.230;10.518;2022-07-19T05:21:39;6.97;;;4.60;;
7001;SDS011;3541;53.230;10.518;2022-07-19T05:24:05;5.65;;;4.57;;
7001;SDS011;3541;53.230;10.518;2022-07-19T05:26:32;6.40;;;4.40;;
7001;SDS011;3541;53.230;10.518;2022-07-19T05:28:59;7.50;;;4.97;;
7001;SDS011;3541;53.230;10.518;2022-07-19T05:31:26;5.97;;;4.38;;
7001;SDS011;3541;53.230;10.518;2022-07-19T05:33:52;5.05;;;4.35;;
7001;SDS011;3541;53.230;10.518;2022-07-19T05:36:19;5.43;;;4.35;;
7001;SDS011;3541;53.230;10.518;2022-07-19T05:38:47;6.97;;;4.40;;
7001;SDS011;3541;53.230;10.518;2022-07-19T05:41:13;7.32;;;4.70;;
7001;SDS011;3541;53.230;10.518;2022-07-19T05:43:42;4.63;;;4.13;;
7001;SDS011;3541;53.230;10.518;2022-07-19T05:46:08;7.75;;;4.78;;
7001;SDS011;3541;53.230;10.518;2022-07-19T05:48:35;5.50;;;4.55;;
7001;SDS011;3541;53.230;10.518;2022-07-19T05:51:02;7.78;;;4.93;;
7001;SDS011;3541;53.230;10.518;2022-07-19T05:53:29;5.70;;;4.35;;
7001;SDS011;3541;53.230;10.518;2022-07-19T05:55:56;6.10;;;4.45;;
7001;SDS011;3541;53.230;10.518;2022-07-19T05:58:23;8.57;;;4.50;;
7001;SDS011;3541;53.230;10.518;2022-07-19T06:00:50;6.10;;;4.70;;
7001;SDS011;3541;53.230;10.518;2022-07-19T06:03:34;5.95;;;4.10;;
7001;SDS011;3541;53.230;10.518;2022-07-19T06:06:01;7.43;;;4.43;;
7001;SDS011;3541;53.230;10.518;2022-07-19T06:08:28;5.90;;;4.70;;
7001;SDS011;3541;53.230;10.518;2022-07-19T06:10:56;5.55;;;4.47;;
7001;SDS011;3541;53.230;10.518;2022-07-19T06:13:23;6.15;;;4.30;;
7001;SDS011;3541;53.230;10.518;2022-07-19T06:15:49;5.90;;;4.38;;
7001;SDS011;3541;53.230;10.518;2022-07-19T06:18:16;6.03;;;4.55;;
7001;SDS011;3541;53.230;10.518;2022-07-19T06:20:43;6.68;;;4.65;;
7001;SDS011;3541;53.230;10.518;2022-07-19T06:23:10;5.55;;;4.50;;
7001;SDS011;3541;53.230;10.518;2022-07-19T06:25:37;6.60;;;4.10;;
7001;SDS011;3541;53.230;10.518;2022-07-19T06:28:05;5.43;;;4.22;;
7001;SDS011;3541;53.230;10.518;2022-07-19T06:30:31;7.10;;;4.05;;
7001;SDS011;3541;53.230;10.518;2022-07-19T06:32:58;6.60;;;4.50;;
7001;SDS011;3541;53.230;10.518;2022-07-19T06:35:25;6.22;;;4.82;;
7001;SDS011;3541;53.230;10.518;2022-07-19T06:37:51;5.05;;;4.50;;
7001;SDS011;3541;53.230;10.518;2022-07-19T06:40:18;7.20;;;4.45;;
7001;SDS011;3541;53.230;10.518;2022-07-19T06:42:45;5.72;;;4.75;;
7001;SDS011;3541;53.230;10.518;2022-07-19T06:45:13;5.60;;;4.20;;
7001;SDS011;3541;53.230;10.518;2022-07-19T06:47:40;6.05;;;4.38;;
7001;SDS011;3541;53.230;10.518;2022-07-19T06:50:07;5.43;;;4.30;;
7001;SDS011;3541;53.230;10.518;2022-07-19T06:52:34;5.88;;;4.57;;
7001;SDS011;3541;53.230;10.518;2022-07-19T06:55:00;6.00;;;4.13;;
7001;SDS011;3541;53.230;10.518;2022-07-19T06:57:27;5.35;;;4.15;;
7001;SDS011;3541;53.230;10.518;2022-07-19T06:59:54;6.32;;;4.20;;
7001;SDS011;3541;53.230;10.518;2022-07-19T07:02:21;7.07;;;4.40;;
7001;SDS011;3541;53.230;10.518;2022-07-19T07:04:48;5.28;;;4.60;;
7001;SDS011;3541;53.230;10.518;2022-07-19T07:07:15;5.30;;;4.35;;
7001;SDS011;3541;53.230;10.518;2022-07-19T07:09:41;4.95;;;3.90;;
7001;SDS011;3541;53.230;10.518;2022-07-19T07:12:08;5.25;;;4.10;;
7001;SDS011;3541;53.230;10.518;2022-07-19T07:14:35;7.03;;;4.30;;
7001;SDS011;3541;53.230;10.518;2022-07-19T07:17:02;5.05;;;4.20;;
7001;SDS011;3541;53.230;10.518;2022-07-19T07:19:30;5.28;;;4.28;;
7001;SDS011;3541;53.230;10.518;2022-07-19T07:21:56;5.25;;;3.92;;
7001;SDS011;3541;53.230;10.518;2022-07-19T07:24:24;5.18;;;4.05;;
7001;SDS011;3541;53.230;10.518;2022-07-19T07:26:51;4.85;;;4.00;;
7001;SDS011;3541;53.230;10.518;2022-07-19T07:29:18;4.85;;;4.13;;
7001;SDS011;3541;53.230;10.518;2022-07-19T07:31:44;6.85;;;3.90;;
7001;SDS011;3541;53.230;10.518;2022-07-19T07:34:11;6.95;;;3.97;;
7001;SDS011;3541;53.230;10.518;2022-07-19T07:36:39;5.10;;;4.60;;
7001;SDS011;3541;53.230;10.518;2022-07-19T07:39:05;4.85;;;4.05;;
7001;SDS011;3541;53.230;10.518;2022-07-19T07:41:32;4.68;;;4.18;;
7001;SDS011;3541;53.230;10.518;2022-07-19T07:43:58;5.55;;;4.60;;
7001;SDS011;3541;53.230;10.518;2022-07-19T07:46:25;5.55;;;4.10;;
7001;SDS011;3541;53.230;10.518;2022-07-19T07:48:51;5.70;;;4.60;;
7001;SDS011;3541;53.230;10.518;2022-07-19T07:51:18;4.68;;;4.07;;
7001;SDS011;3541;53.230;10.518;2022-07-19T07:53:46;4.97;;;4.40;;
7001;SDS011;3541;53.230;10.518;2022-07-19T07:56:13;6.45;;;4.50;;
7001;SDS011;3541;53.230;10.518;2022-07-19T07:58:39;6.35;;;4.30;;
7001;SDS011;3541;53.230;10.518;2022-07-19T08:01:06;4.40;;;3.95;;
7001;SDS011;3541;53.230;10.518;2022-07-19T08:03:33;6.55;;;3.83;;
7001;SDS011;3541;53.230;10.518;2022-07-19T08:05:59;5.45;;;4.03;;
7001;SDS011;3541;53.230;10.518;2022-07-19T08:08:27;5.97;;;3.80;;
7001;SDS011;3541;53.230;10.518;2022-07-19T08:10:55;7.63;;;4.32;;
7001;SDS011;3541;53.230;10.518;2022-07-19T08:13:22;4.72;;;3.88;;
7001;SDS011;3541;53.230;10.518;2022-07-19T08:15:49;6.63;;;4.63;;
7001;SDS011;3541;53.230;10.518;2022-07-19T08:18:15;5.72;;;4.28;;
7001;SDS011;3541;53.230;10.518;2022-07-19T08:20:42;5.15;;;4.40;;
7001;SDS011;3541;53.230;10.518;2022-07-19T08:23:09;5.95;;;4.28;;
7001;SDS011;3541;53.230;10.518;2022-07-19T08:25:36;8.30;;;4.35;;
7001;SDS011;3541;53.230;10.518;2022-07-19T08:28:04;5.03;;;4.45;;
7001;SDS011;3541;53.230;10.518;2022-07-19T08:30:31;5.40;;;4.30;;
7001;SDS011;3541;53.230;10.518;2022-07-19T08:32:57;7.25;;;4.25;;
7001;SDS011;3541;53.230;10.518;2022-07-19T08:35:25;4.07;;;3.67;;
7001;SDS011;3541;53.230;10.518;2022-07-19T08:37:52;6.13;;;4.18;;
7001;SDS011;3541;53.230;10.518;2022-07-19T08:40:19;5.78;;;4.05;;
7001;SDS011;3541;53.230;10.518;2022-07-19T08:42:45;6.07;;;3.97;;
7001;SDS011;3541;53.230;10.518;2022-07-19T08:45:14;4.57;;;3.85;;
7001;SDS011;3541;53.230;10.518;2022-07-19T08:47:40;5.50;;;4.00;;
7001;SDS011;3541;53.230;10.518;2022-07-19T08:50:09;3.95;;;3.55;;
7001;SDS011;3541;53.230;10.518;2022-07-19T08:52:37;5.40;;;3.85;;
7001;SDS011;3541;53.230;10.518;2022-07-19T08:55:04;5.43;;;3.92;;
7001;SDS011;3541;53.230;10.518;2022-07-19T08:57:31;5.60;;;3.97;;
7001;SDS011;3541;53.230;10.518;2022-07-19T09:00:17;4.93;;;3.88;;
7001;SDS011;3541;53.230;10.518;2022-07-19T09:02:50;7.72;;;3.60;;
7001;SDS011;3541;53.230;10.518;2022-07-19T09:05:17;4.53;;;3.63;;
7001;SDS011;3541;53.230;10.518;2022-07-19T09:07:58;5.57;;;4.32;;
7001;SDS011;3541;53.230;10.518;2022-07-19T09:10:26;6.88;;;3.80;;
7001;SDS011;3541;53.230;10.518;2022-07-19T09:13:00;7.63;;;3.50;;
7001;SDS011;3541;53.230;10.518;2022-07-19T09:15:40;4.57;;;3.80;;
7001;SDS011;3541;53.230;10.518;2022-07-19T09:18:09;5.03;;;3.42;;
7001;SDS011;3541;53.230;10.518;2022-07-19T09:20:37;4.30;;;3.63;;
7001;SDS011;3541;53.230;10.518;2022-07-19T09:23:05;8.32;;;3.67;;
7001;SDS011;3541;53.230;10.518;2022-07-19T09:25:32;4.32;;;3.80;;
7001;SDS011;3541;53.230;10.518;2022-07-19T09:28:04;4.93;;;3.47;;
7001;SDS011;3541;53.230;10.518;2022-07-19T09:30:31;4.05;;;3.63;;
7001;SDS011;3541;53.230;10.518;2022-07-19T09:33:10;4.22;;;3.30;;
7001;SDS011;3541;53.230;10.518;2022-07-19T09:35:40;3.90;;;3.45;;
7001;SDS011;3541;53.230;10.518;2022-07-19T09:38:15;3.25;;;2.95;;
7001;SDS011;3541;53.230;10.518;2022-07-19T09:40:43;3.25;;;2.95;;
7001;SDS011;3541;53.230;10.518;2022-07-19T09:43:09;3.97;;;3.05;;
7001;SDS011;3541;53.230;10.518;2022-07-19T09:45:36;4.97;;;3.67;;
7001;SDS011;3541;53.230;10.518;2022-07-19T09:48:03;5.90;;;3.22;;
7001;SDS011;3541;53.230;10.518;2022-07-19T09:50:31;6.80;;;3.63;;
7001;SDS011;3541;53.230;10.518;2022-07-19T09:52:58;5.47;;;3.30;;
7001;SDS011;3541;53.230;10.518;2022-07-19T09:55:28;5.25;;;3.75;;
7001;SDS011;3541;53.230;10.518;2022-07-19T09:57:55;3.47;;;3.13;;
7001;SDS011;3541;53.230;10.518;2022-07-19T10:00:23;3.90;;;3.30;;
7001;SDS011;3541;53.230;10.518;2022-07-19T10:02:51;4.85;;;3.40;;
7001;SDS011;3541;53.230;10.518;2022-07-19T10:05:19;3.63;;;3.10;;
7001;SDS011;3541;53.230;10.518;2022-07-19T10:07:47;5.28;;;3.33;;
7001;SDS011;3541;53.230;10.518;2022-07-19T10:10:15;4.40;;;3.30;;
7001;SDS011;3541;53.230;10.518;2022-07-19T10:12:43;5.85;;;2.95;;
7001;SDS011;3541;53.230;10.518;2022-07-19T10:15:12;4.28;;;2.80;;
7001;SDS011;3541;53.230;10.518;2022-07-19T10:17:41;3.78;;;3.00;;
7001;SDS011;3541;53.230;10.518;2022-07-19T10:20:21;4.32;;;2.75;;
7001;SDS011;3541;53.230;10.518;2022-07-19T10:22:50;3.35;;;2.80;;
7001;SDS011;3541;53.230;10.518;2022-07-19T10:25:18;3.42;;;2.90;;
7001;SDS011;3541;53.230;10.518;2022-07-19T10:27:46;3.88;;;3.10;;
7001;SDS011;3541;53.230;10.518;2022-07-19T10:33:05;3.85;;;2.78;;
7001;SDS011;3541;53.230;10.518;2022-07-19T10:35:53;3.78;;;2.88;;
7001;SDS011;3541;53.230;10.518;2022-07-19T10:38:21;3.47;;;3.10;;
7001;SDS011;3541;53.230;10.518;2022-07-19T10:40:48;3.55;;;2.95;;
7001;SDS011;3541;53.230;10.518;2022-07-19T10:43:17;4.00;;;3.00;;
7001;SDS011;3541;53.230;10.518;2022-07-19T10:48:37;6.50;;;3.20;;
7001;SDS011;3541;53.230;10.518;2022-07-19T10:51:06;3.53;;;3.00;;
7001;SDS011;3541;53.230;10.518;2022-07-19T10:56:57;5.25;;;3.10;;
7001;SDS011;3541;53.230;10.518;2022-07-19T10:59:30;5.85;;;3.22;;
7001;SDS011;3541;53.230;10.518;2022-07-19T11:02:03;3.22;;;2.92;;
7001;SDS011;3541;53.230;10.518;2022-07-19T11:04:30;4.13;;;3.20;;
7001;SDS011;3541;53.230;10.518;2022-07-19T11:07:18;3.53;;;3.00;;
7001;SDS011;3541;53.230;10.518;2022-07-19T11:09:48;3.42;;;2.78;;
7001;SDS011;3541;53.230;10.518;2022-07-19T11:15:04;3.60;;;3.17;;
7001;SDS011;3541;53.230;10.518;2022-07-19T11:17:33;3.92;;;2.80;;
7001;SDS011;3541;53.230;10.518;2022-07-19T11:20:00;4.45;;;2.72;;
7001;SDS011;3541;53.230;10.518;2022-07-19T11:22:33;3.17;;;2.75;;
7001;SDS011;3541;53.230;10.518;2022-07-19T11:25:02;3.28;;;2.90;;
7001;SDS011;3541;53.230;10.518;2022-07-19T11:27:30;4.90;;;3.03;;
7001;SDS011;3541;53.230;10.518;2022-07-19T11:29:58;4.53;;;2.53;;
7001;SDS011;3541;53.230;10.518;2022-07-19T11:32:27;4.32;;;2.70;;
7001;SDS011;3541;53.230;10.518;2022-07-19T11:34:55;4.53;;;2.85;;
7001;SDS011;3541;53.230;10.518;2022-07-19T11:37:23;4.30;;;2.72;;
7001;SDS011;3541;53.230;10.518;2022-07-19T11:39:50;4.93;;;2.75;;
7001;SDS011;3541;53.230;10.518;2022-07-19T11:42:26;2.58;;;2.38;;
7001;SDS011;3541;53.230;10.518;2022-07-19T11:44:53;4.75;;;2.90;;
7001;SDS011;3541;53.230;10.518;2022-07-19T11:47:22;3.15;;;2.65;;
7001;SDS011;3541;53.230;10.518;2022-07-19T11:49:48;4.43;;;2.70;;
7001;SDS011;3541;53.230;10.518;2022-07-19T11:52:15;4.22;;;2.90;;
7001;SDS011;3541;53.230;10.518;2022-07-19T11:54:45;3.22;;;2.85;;
7001;SDS011;3541;53.230;10.518;2022-07-19T11:57:24;3.53;;;2.72;;
7001;SDS011;3541;53.230;10.518;2022-07-19T11:59:50;2.95;;;2.65;;
7001;SDS011;3541;53.230;10.518;2022-07-19T12:02:17;3.90;;;3.00;;
7001;SDS011;3541;53.230;10.518;2022-07-19T12:04:45;3.83;;;2.60;;
7001;SDS011;3541;53.230;10.518;2022-07-19T12:07:11;3.50;;;2.58;;
7001;SDS011;3541;53.230;10.518;2022-07-19T12:09:42;3.08;;;2.50;;
7001;SDS011;3541;53.230;10.518;2022-07-19T12:12:12;4.10;;;2.47;;
7001;SDS011;3541;53.230;10.518;2022-07-19T12:14:40;3.13;;;2.72;;
7001;SDS011;3541;53.230;10.518;2022-07-19T12:17:11;5.05;;;2.55;;
7001;SDS011;3541;53.230;10.518;2022-07-19T12:19:39;3.00;;;2.50;;
7001;SDS011;3541;53.230;10.518;2022-07-19T12:24:53;4.93;;;2.63;;
7001;SDS011;3541;53.230;10.518;2022-07-19T12:27:20;4.10;;;2.67;;
7001;SDS011;3541;53.230;10.518;2022-07-19T12:29:52;3.30;;;2.53;;
7001;SDS011;3541;53.230;10.518;2022-07-19T12:32:26;2.63;;;2.20;;
7001;SDS011;3541;53.230;10.518;2022-07-19T12:34:55;5.68;;;2.65;;
7001;SDS011;3541;53.230;10.518;2022-07-19T12:37:24;2.17;;;1.98;;
7001;SDS011;3541;53.230;10.518;2022-07-19T12:40:03;5.05;;;2.50;;
7001;SDS011;3541;53.230;10.518;2022-07-19T12:42:36;3.60;;;2.30;;
7001;SDS011;3541;53.230;10.518;2022-07-19T12:45:05;3.58;;;2.42;;
7001;SDS011;3541;53.230;10.518;2022-07-19T12:47:33;4.28;;;2.72;;
7001;SDS011;3541;53.230;10.518;2022-07-19T12:50:00;4.60;;;2.70;;
7001;SDS011;3541;53.230;10.518;2022-07-19T12:52:28;3.60;;;2.40;;
7001;SDS011;3541;53.230;10.518;2022-07-19T12:54:55;6.53;;;2.67;;
7001;SDS011;3541;53.230;10.518;2022-07-19T12:57:23;4.85;;;2.65;;
7001;SDS011;3541;53.230;10.518;2022-07-19T12:59:49;5.18;;;2.60;;
7001;SDS011;3541;53.230;10.518;2022-07-19T13:02:17;4.32;;;2.75;;
7001;SDS011;3541;53.230;10.518;2022-07-19T13:04:44;5.03;;;2.78;;
7001;SDS011;3541;53.230;10.518;2022-07-19T13:07:12;4.18;;;2.63;;
7001;SDS011;3541;53.230;10.518;2022-07-19T13:09:39;5.20;;;2.70;;
7001;SDS011;3541;53.230;10.518;2022-07-19T13:12:06;4.47;;;2.40;;
7001;SDS011;3541;53.230;10.518;2022-07-19T13:14:36;3.72;;;2.45;;
7001;SDS011;3541;53.230;10.518;2022-07-19T13:17:03;4.35;;;2.65;;
7001;SDS011;3541;53.230;10.518;2022-07-19T13:19:30;3.05;;;2.75;;
7001;SDS011;3541;53.230;10.518;2022-07-19T13:21:57;4.28;;;2.70;;
7001;SDS011;3541;53.230;10.518;2022-07-19T13:24:24;3.03;;;2.35;;
7001;SDS011;3541;53.230;10.518;2022-07-19T13:26:51;2.80;;;2.60;;
7001;SDS011;3541;53.230;10.518;2022-07-19T13:29:18;4.18;;;2.75;;
7001;SDS011;3541;53.230;10.518;2022-07-19T13:31:45;4.30;;;2.60;;
7001;SDS011;3541;53.230;10.518;2022-07-19T13:34:12;3.28;;;2.35;;
7001;SDS011;3541;53.230;10.518;2022-07-19T13:36:39;4.70;;;2.35;;
7001;SDS011;3541;53.230;10.518;2022-07-19T13:39:05;3.97;;;2.60;;
7001;SDS011;3541;53.230;10.518;2022-07-19T13:41:34;3.72;;;2.47;;
7001;SDS011;3541;53.230;10.518;2022-07-19T13:44:01;4.63;;;2.40;;
7001;SDS011;3541;53.230;10.518;2022-07-19T13:46:28;2.65;;;2.42;;
7001;SDS011;3541;53.230;10.518;2022-07-19T13:48:56;4.32;;;2.75;;
7001;SDS011;3541;53.230;10.518;2022-07-19T13:51:22;3.83;;;2.50;;
7001;SDS011;3541;53.230;10.518;2022-07-19T13:53:49;5.47;;;2.58;;
7001;SDS011;3541;53.230;10.518;2022-07-19T13:56:17;4.00;;;2.67;;
7001;SDS011;3541;53.230;10.518;2022-07-19T13:58:44;2.50;;;2.30;;
7001;SDS011;3541;53.230;10.518;2022-07-19T14:01:11;3.15;;;2.10;;
7001;SDS011;3541;53.230;10.518;2022-07-19T14:03:38;3.72;;;2.10;;
7001;SDS011;3541;53.230;10.518;2022-07-19T14:06:06;4.55;;;2.60;;
7001;SDS011;3541;53.230;10.518;2022-07-19T14:08:33;5.90;;;2.70;;
7001;SDS011;3541;53.230;10.518;2022-07-19T14:11:00;4.68;;;2.88;;
7001;SDS011;3541;53.230;10.518;2022-07-19T14:13:27;3.92;;;2.40;;
7001;SDS011;3541;53.230;10.518;2022-07-19T14:15:54;3.88;;;2.50;;
7001;SDS011;3541;53.230;10.518;2022-07-19T14:18:21;3.63;;;2.40;;
7001;SDS011;3541;53.230;10.518;2022-07-19T14:20:48;3.10;;;2.40;;
7001;SDS011;3541;53.230;10.518;2022-07-19T14:23:16;2.42;;;2.22;;
7001;SDS011;3541;53.230;10.518;2022-07-19T14:25:43;3.75;;;2.50;;
7001;SDS011;3541;53.230;10.518;2022-07-19T14:28:09;2.88;;;2.50;;
7001;SDS011;3541;53.230;10.518;2022-07-19T14:30:36;3.65;;;2.45;;
7001;SDS011;3541;53.230;10.518;2022-07-19T14:33:03;3.05;;;2.80;;
7001;SDS011;3541;53.230;10.518;2022-07-19T14:35:29;3.00;;;2.40;;
7001;SDS011;3541;53.230;10.518;2022-07-19T14:37:56;2.95;;;2.58;;
7001;SDS011;3541;53.230;10.518;2022-07-19T14:40:24;2.88;;;2.58;;
7001;SDS011;3541;53.230;10.518;2022-07-19T14:42:50;3.92;;;2.45;;
7001;SDS011;3541;53.230;10.518;2022-07-19T14:45:17;2.78;;;2.28;;
7001;SDS011;3541;53.230;10.518;2022-07-19T14:47:44;3.08;;;2.60;;
7001;SDS011;3541;53.230;10.518;2022-07-19T14:50:10;3.03;;;2.70;;
7001;SDS011;3541;53.230;10.518;2022-07-19T14:52:38;5.25;;;2.80;;
7001;SDS011;3541;53.230;10.518;2022-07-19T14:55:06;4.72;;;2.50;;
7001;SDS011;3541;53.230;10.518;2022-07-19T14:57:34;2.80;;;2.50;;
7001;SDS011;3541;53.230;10.518;2022-07-19T15:00:01;2.85;;;2.60;;
7001;SDS011;3541;53.230;10.518;2022-07-19T15:02:29;6.10;;;2.45;;
7001;SDS011;3541;53.230;10.518;2022-07-19T15:04:56;4.00;;;2.70;;
7001;SDS011;3541;53.230;10.518;2022-07-19T15:07:23;4.18;;;2.55;;
7001;SDS011;3541;53.230;10.518;2022-07-19T15:09:50;5.20;;;2.70;;
7001;SDS011;3541;53.230;10.518;2022-07-19T15:12:17;3.40;;;2.33;;
7001;SDS011;3541;53.230;10.518;2022-07-19T15:14:45;5.60;;;2.28;;
7001;SDS011;3541;53.230;10.518;2022-07-19T15:17:12;5.28;;;2.25;;